createdAt,value
2017-11-26T00:00:05.472Z,1008.99
2017-11-26T00:00:45.929Z,1009.02
2017-11-26T00:01:26.699Z,1009.02
2017-11-26T00:02:07.165Z,1009.05
2017-11-26T00:02:47.329Z,1009.02
2017-11-26T00:03:27.828Z,1009.06
2017-11-26T00:04:08.128Z,1009.04
2017-11-26T00:04:48.626Z,1009.08
2017-11-26T00:05:29.059Z,1009.08
2017-11-26T00:06:09.467Z,1009.04
2017-11-26T00:06:49.865Z,1009.06
2017-11-26T00:07:30.574Z,1009.04
2017-11-26T00:08:11.197Z,1009.04
2017-11-26T00:08:51.574Z,1009.04
2017-11-26T00:09:32.221Z,1009.01
2017-11-26T00:10:13.420Z,1009.01
2017-11-26T00:10:53.638Z,1008.99
2017-11-26T00:11:34.143Z,1009.01
2017-11-26T00:12:14.720Z,1009.02
2017-11-26T00:12:54.918Z,1009.01
2017-11-26T00:13:35.291Z,1009.02
2017-11-26T00:14:15.722Z,1009.01
2017-11-26T00:14:56.123Z,1008.99
2017-11-26T00:15:36.523Z,1009.06
2017-11-26T00:16:16.954Z,1009.02
2017-11-26T00:16:57.380Z,1008.99
2017-11-26T00:17:37.779Z,1009.03
2017-11-26T00:18:18.645Z,1009.03
2017-11-26T00:18:58.791Z,1009.02
2017-11-26T00:19:39.200Z,1009.03
2017-11-26T00:20:19.567Z,1009.05
2017-11-26T00:21:00.215Z,1009.01
2017-11-26T00:21:40.559Z,1009
2017-11-26T00:22:21.159Z,1009.03
2017-11-26T00:23:01.762Z,1009.02
2017-11-26T00:23:42.151Z,1008.99
2017-11-26T00:24:22.639Z,1009.01
2017-11-26T00:25:02.926Z,1008.98
2017-11-26T00:25:43.575Z,1008.99
2017-11-26T00:26:23.931Z,1008.99
2017-11-26T00:27:04.602Z,1009
2017-11-26T00:27:44.912Z,1009.03
2017-11-26T00:28:25.325Z,1009.02
2017-11-26T00:29:05.974Z,1009.05
2017-11-26T00:29:46.339Z,1008.99
2017-11-26T00:30:26.586Z,1008.99
2017-11-26T00:31:06.963Z,1008.96
2017-11-26T00:31:47.427Z,1009.04
2017-11-26T00:32:27.834Z,1009.01
2017-11-26T00:33:08.372Z,1009.01
2017-11-26T00:33:48.692Z,1009.01
2017-11-26T00:34:29.220Z,1009.01
2017-11-26T00:35:09.660Z,1009.03
2017-11-26T00:35:50.107Z,1009.04
2017-11-26T00:36:30.613Z,1009.07
2017-11-26T00:37:11.085Z,1009.14
2017-11-26T00:37:51.414Z,1009.15
2017-11-26T00:38:32.348Z,1009.1
2017-11-26T00:39:12.710Z,1009.12
2017-11-26T00:39:53.308Z,1009.12
2017-11-26T00:40:33.528Z,1009.14
2017-11-26T00:41:14.132Z,1009.17
2017-11-26T00:41:54.668Z,1009.18
2017-11-26T00:42:35.217Z,1009.18
2017-11-26T00:43:15.461Z,1009.2
2017-11-26T00:43:56.462Z,1009.21
2017-11-26T00:44:36.851Z,1009.24
2017-11-26T00:45:17.224Z,1009.24
2017-11-26T00:45:57.625Z,1009.24
2017-11-26T00:46:38.022Z,1009.23
2017-11-26T00:47:18.654Z,1009.25
2017-11-26T00:47:59.038Z,1009.28
2017-11-26T00:48:39.456Z,1009.27
2017-11-26T00:49:19.865Z,1009.21
2017-11-26T00:50:00.293Z,1009.22
2017-11-26T00:50:40.719Z,1009.21
2017-11-26T00:51:21.090Z,1009.24
2017-11-26T00:52:02.470Z,1009.2
2017-11-26T00:52:42.144Z,1009.2
2017-11-26T00:53:22.499Z,1009.17
2017-11-26T00:54:02.812Z,1009.18
2017-11-26T00:54:43.211Z,1009.22
2017-11-26T00:55:23.651Z,1009.2
2017-11-26T00:56:04.076Z,1009.21
2017-11-26T00:56:45.013Z,1009.26
2017-11-26T00:57:25.337Z,1009.29
2017-11-26T00:58:05.858Z,1009.28
2017-11-26T00:58:46.252Z,1009.29
2017-11-26T00:59:26.767Z,1009.31
2017-11-26T01:00:06.996Z,1009.32
2017-11-26T01:00:47.539Z,1009.28
2017-11-26T01:01:27.927Z,1009.28
2017-11-26T01:02:08.303Z,1009.28
2017-11-26T01:02:49.098Z,1009.3
2017-11-26T01:03:29.478Z,1009.34
2017-11-26T01:04:09.928Z,1009.29
2017-11-26T01:04:50.317Z,1009.32
2017-11-26T01:05:30.884Z,1009.36
2017-11-26T01:06:11.570Z,1009.06
2017-11-26T01:06:51.979Z,1009.33
2017-11-26T01:07:32.409Z,1009.3
2017-11-26T01:08:12.781Z,1009.29
2017-11-26T01:08:53.306Z,1009.3
2017-11-26T01:09:33.677Z,1009.35
2017-11-26T01:10:14.076Z,1009.3
2017-11-26T01:10:54.559Z,1009.31
2017-11-26T01:11:34.966Z,1009.31
2017-11-26T01:12:15.934Z,1009.32
2017-11-26T01:12:56.733Z,1009.29
2017-11-26T01:13:36.830Z,1009.28
2017-11-26T01:14:17.189Z,1009.31
2017-11-26T01:14:57.564Z,1009.3
2017-11-26T01:15:38.075Z,1009.29
2017-11-26T01:16:18.466Z,1009.3
2017-11-26T01:16:58.954Z,1009.32
2017-11-26T01:17:39.363Z,1009.26
2017-11-26T01:18:19.776Z,1009.27
2017-11-26T01:19:00.325Z,1009.32
2017-11-26T01:19:41.289Z,1009.27
2017-11-26T01:20:21.662Z,1009.29
2017-11-26T01:21:02.057Z,1009.3
2017-11-26T01:21:42.455Z,1009.27
2017-11-26T01:22:22.818Z,1009.24
2017-11-26T01:23:03.402Z,1009.26
2017-11-26T01:23:43.647Z,1009.19
2017-11-26T01:24:24.073Z,1009.27
2017-11-26T01:25:04.595Z,1009.21
2017-11-26T01:25:45.120Z,1009.21
2017-11-26T01:26:25.928Z,1009.25
2017-11-26T01:27:06.137Z,1009.23
2017-11-26T01:27:46.513Z,1009.24
2017-11-26T01:28:26.854Z,1009.32
2017-11-26T01:29:07.241Z,1009.25
2017-11-26T01:29:47.597Z,1009.27
2017-11-26T01:30:27.995Z,1009.29
2017-11-26T01:31:08.480Z,1009.28
2017-11-26T01:31:48.919Z,1009.28
2017-11-26T01:32:29.524Z,1009.28
2017-11-26T01:33:09.945Z,1009.28
2017-11-26T01:33:50.307Z,1009.29
2017-11-26T01:34:31.135Z,1009.32
2017-11-26T01:35:11.154Z,1009.27
2017-11-26T01:35:51.555Z,1009.26
2017-11-26T01:36:31.978Z,1009.24
2017-11-26T01:37:13.073Z,1009.19
2017-11-26T01:37:53.563Z,1009.21
2017-11-26T01:38:33.853Z,1009.19
2017-11-26T01:39:14.425Z,1009.2
2017-11-26T01:39:54.904Z,1009.25
2017-11-26T01:40:35.272Z,1009.25
2017-11-26T01:41:15.630Z,1009.24
2017-11-26T01:41:56.195Z,1009.3
2017-11-26T01:42:37.842Z,1009.27
2017-11-26T01:43:18.451Z,1009.23
2017-11-26T01:43:59.226Z,1009.24
2017-11-26T01:44:40.286Z,1009.26
2017-11-26T01:45:20.706Z,1009.24
2017-11-26T01:46:01.130Z,1009.28
2017-11-26T01:46:41.814Z,1009.3
2017-11-26T01:47:22.364Z,1009.23
2017-11-26T01:48:03.401Z,1009.22
2017-11-26T01:48:43.774Z,1009.3
2017-11-26T01:49:24.349Z,1009.3
2017-11-26T01:50:04.754Z,1009.31
2017-11-26T01:50:45.057Z,1009.29
2017-11-26T01:51:25.543Z,1009.3
2017-11-26T01:52:06.229Z,1009.33
2017-11-26T01:52:46.995Z,1009.31
2017-11-26T01:53:27.425Z,1009.28
2017-11-26T01:54:08.015Z,1009.31
2017-11-26T01:54:48.434Z,1009.3
2017-11-26T01:55:28.851Z,1009.31
2017-11-26T01:56:09.227Z,1009.32
2017-11-26T01:56:50.276Z,1009.33
2017-11-26T01:57:30.366Z,1009.32
2017-11-26T01:58:10.806Z,1009.32
2017-11-26T01:58:51.641Z,1009.35
2017-11-26T01:59:31.987Z,1009.27
2017-11-26T02:00:12.777Z,1009.28
2017-11-26T02:00:53.285Z,1009.27
2017-11-26T02:01:33.862Z,1009.32
2017-11-26T02:02:14.272Z,1009.33
2017-11-26T02:02:54.936Z,1009.26
2017-11-26T02:03:35.133Z,1009.31
2017-11-26T02:04:15.536Z,1009.29
2017-11-26T02:04:55.957Z,1009.29
2017-11-26T02:05:36.381Z,1009.29
2017-11-26T02:06:16.846Z,1009.3
2017-11-26T02:06:57.239Z,1009.29
2017-11-26T02:07:37.727Z,1009.27
2017-11-26T02:08:18.360Z,1009.31
2017-11-26T02:08:58.748Z,1009.32
2017-11-26T02:09:39.295Z,1009.23
2017-11-26T02:11:52.796Z,1009.28
2017-11-26T02:12:36.124Z,1009.25
2017-11-26T02:13:16.643Z,1009.35
2017-11-26T02:13:57.990Z,1009.33
2017-11-26T02:14:38.543Z,1009.29
2017-11-26T02:15:21.844Z,1009.27
2017-11-26T02:16:02.570Z,1009.34
2017-11-26T02:16:43.105Z,1009.34
2017-11-26T02:17:23.619Z,1009.31
2017-11-26T02:18:04.851Z,1009.34
2017-11-26T02:18:44.724Z,1009.33
2017-11-26T02:19:25.292Z,1009.31
2017-11-26T02:20:05.837Z,1009.3
2017-11-26T02:20:46.382Z,1009.32
2017-11-26T02:21:26.933Z,1009.35
2017-11-26T02:22:07.473Z,1009.35
2017-11-26T02:22:48.085Z,1009.36
2017-11-26T02:23:28.557Z,1009.37
2017-11-26T02:24:09.223Z,1009.38
2017-11-26T02:24:49.711Z,1009.33
2017-11-26T02:25:30.381Z,1009.38
2017-11-26T02:26:10.901Z,1009.42
2017-11-26T02:26:51.413Z,1009.43
2017-11-26T02:27:32.048Z,1009.34
2017-11-26T02:28:12.624Z,1009.45
2017-11-26T02:28:53.132Z,1009.41
2017-11-26T02:29:37.177Z,1009.43
2017-11-26T02:30:17.747Z,1009.39
2017-11-26T02:30:58.286Z,1009.41
2017-11-26T02:31:38.785Z,1009.4
2017-11-26T02:32:19.319Z,1009.4
2017-11-26T02:33:02.535Z,1009.44
2017-11-26T02:33:43.719Z,1009.45
2017-11-26T02:34:24.191Z,1009.44
2017-11-26T02:35:04.785Z,1009.43
2017-11-26T02:35:45.279Z,1009.45
2017-11-26T02:36:28.785Z,1009.4
2017-11-26T02:37:07.464Z,1009.45
2017-11-26T02:37:47.909Z,1009.43
2017-11-26T02:38:30.358Z,1009.45
2017-11-26T02:39:12.618Z,1009.42
2017-11-26T02:39:54.050Z,1009.46
2017-11-26T02:40:34.647Z,1009.5
2017-11-26T02:41:15.174Z,1009.51
2017-11-26T02:41:55.714Z,1009.51
2017-11-26T02:42:36.236Z,1009.44
2017-11-26T02:43:16.782Z,1009.54
2017-11-26T02:43:57.355Z,1009.47
2017-11-26T02:44:37.873Z,1009.47
2017-11-26T02:45:18.435Z,1009.5
2017-11-26T02:45:59.155Z,1009.55
2017-11-26T02:46:40.343Z,1009.61
2017-11-26T02:47:20.099Z,1009.54
2017-11-26T02:48:03.895Z,1009.59
2017-11-26T02:48:44.509Z,1009.6
2017-11-26T02:49:25.020Z,1009.61
2017-11-26T02:50:05.488Z,1009.6
2017-11-26T02:50:46.079Z,1009.62
2017-11-26T02:51:26.646Z,1009.6
2017-11-26T02:52:10.767Z,1009.61
2017-11-26T02:52:52.242Z,1009.61
2017-11-26T02:53:35.813Z,1009.6
2017-11-26T02:54:16.422Z,1009.59
2017-11-26T02:54:56.963Z,1009.61
2017-11-26T02:55:37.640Z,1009.62
2017-11-26T02:56:18.166Z,1009.61
2017-11-26T02:56:58.697Z,1009.61
2017-11-26T02:57:39.345Z,1009.64
2017-11-26T02:58:19.847Z,1009.59
2017-11-26T02:59:00.383Z,1009.58
2017-11-26T02:59:40.993Z,1009.59
2017-11-26T03:00:21.696Z,1009.64
2017-11-26T03:01:02.137Z,1009.64
2017-11-26T03:01:42.661Z,1009.62
2017-11-26T03:02:23.187Z,1009.67
2017-11-26T03:03:03.690Z,1009.67
2017-11-26T03:03:44.319Z,1009.67
2017-11-26T03:04:24.929Z,1009.62
2017-11-26T03:05:05.433Z,1009.64
2017-11-26T03:05:45.974Z,1009.64
2017-11-26T03:06:26.631Z,1009.64
2017-11-26T03:07:07.185Z,1009.64
2017-11-26T03:07:47.638Z,1009.68
2017-11-26T03:08:28.316Z,1009.65
2017-11-26T03:09:11.852Z,1009.58
2017-11-26T03:09:52.848Z,1009.64
2017-11-26T03:10:32.960Z,1009.7
2017-11-26T03:11:13.483Z,1009.74
2017-11-26T03:11:54.123Z,1009.75
2017-11-26T03:12:35.357Z,1009.79
2017-11-26T03:13:15.156Z,1009.74
2017-11-26T03:13:59.153Z,1009.75
2017-11-26T03:14:39.790Z,1009.77
2017-11-26T03:15:20.315Z,1009.79
2017-11-26T03:16:00.737Z,1009.75
2017-11-26T03:16:41.346Z,1009.79
2017-11-26T03:17:22.847Z,1009.79
2017-11-26T03:18:02.536Z,1009.77
2017-11-26T03:18:45.745Z,1009.77
2017-11-26T03:19:26.399Z,1009.78
2017-11-26T03:20:06.888Z,1009.76
2017-11-26T03:20:47.506Z,1009.75
2017-11-26T03:21:27.960Z,1009.77
2017-11-26T03:22:08.415Z,1009.82
2017-11-26T03:22:49.013Z,1009.67
2017-11-26T03:23:29.635Z,1009.76
2017-11-26T03:24:10.211Z,1009.76
2017-11-26T03:24:50.803Z,1009.78
2017-11-26T03:25:31.307Z,1009.71
2017-11-26T03:26:11.892Z,1009.73
2017-11-26T03:26:52.422Z,1009.78
2017-11-26T03:27:33.523Z,1009.76
2017-11-26T03:28:14.109Z,1009.72
2017-11-26T03:28:54.660Z,1009.75
2017-11-26T03:29:35.356Z,1009.72
2017-11-26T03:30:15.916Z,1009.7
2017-11-26T03:30:56.449Z,1009.68
2017-11-26T03:31:37.006Z,1009.7
2017-11-26T03:32:17.562Z,1009.67
2017-11-26T03:32:58.056Z,1009.7
2017-11-26T03:33:38.691Z,1009.65
2017-11-26T03:34:21.454Z,1009.66
2017-11-26T03:35:04.634Z,1009.7
2017-11-26T03:35:45.209Z,1009.7
2017-11-26T03:36:28.714Z,1009.72
2017-11-26T03:37:09.271Z,1009.71
2017-11-26T03:37:50.007Z,1009.65
2017-11-26T03:38:30.533Z,1009.55
2017-11-26T03:39:11.075Z,1009.63
2017-11-26T03:39:53.654Z,1009.62
2017-11-26T03:40:33.715Z,1009.68
2017-11-26T03:41:14.203Z,1009.7
2017-11-26T03:41:56.156Z,1009.7
2017-11-26T03:42:36.684Z,1009.56
2017-11-26T03:43:17.260Z,1009.71
2017-11-26T03:43:57.904Z,1009.68
2017-11-26T03:44:38.383Z,1009.68
2017-11-26T03:45:19.059Z,1009.67
2017-11-26T03:45:59.590Z,1009.74
2017-11-26T03:46:40.160Z,1009.7
2017-11-26T03:47:20.790Z,1009.68
2017-11-26T03:48:01.530Z,1009.61
2017-11-26T03:48:41.971Z,1009.58
2017-11-26T03:49:22.552Z,1009.62
2017-11-26T03:50:03.139Z,1009.62
2017-11-26T03:50:43.632Z,1009.58
2017-11-26T03:51:24.193Z,1009.62
2017-11-26T03:52:04.795Z,1009.64
2017-11-26T03:52:45.359Z,1009.66
2017-11-26T03:53:25.916Z,1009.63
2017-11-26T03:54:06.569Z,1009.66
2017-11-26T03:54:47.209Z,1009.64
2017-11-26T03:55:27.757Z,1009.64
2017-11-26T03:56:08.400Z,1009.64
2017-11-26T03:56:48.946Z,1009.6
2017-11-26T03:57:33.849Z,1009.64
2017-11-26T03:58:13.700Z,1009.64
2017-11-26T03:58:54.278Z,1009.62
2017-11-26T03:59:34.802Z,1009.67
2017-11-26T04:00:15.348Z,1009.65
2017-11-26T04:00:56.006Z,1009.61
2017-11-26T04:01:37.422Z,1009.61
2017-11-26T04:02:21.817Z,1009.66
2017-11-26T04:03:02.532Z,1009.67
2017-11-26T04:03:42.894Z,1009.57
2017-11-26T04:42:28.252Z,1009.59
2017-11-26T04:43:13.245Z,1009.62
2017-11-26T04:43:53.638Z,1009.66
2017-11-26T04:44:34.039Z,1009.62
2017-11-26T04:45:14.413Z,1009.62
2017-11-26T04:45:54.884Z,1009.68
2017-11-26T04:46:35.247Z,1009.69
2017-11-26T04:47:16.519Z,1009.67
2017-11-26T04:47:56.301Z,1009.67
2017-11-26T04:48:36.604Z,1009.69
2017-11-26T04:49:16.984Z,1009.64
2017-11-26T04:49:57.409Z,1009.68
2017-11-26T04:50:37.756Z,1009.69
2017-11-26T04:51:18.214Z,1009.74
2017-11-26T04:51:58.594Z,1009.72
2017-11-26T04:52:38.973Z,1009.77
2017-11-26T04:53:19.424Z,1009.78
2017-11-26T04:53:59.851Z,1009.75
2017-11-26T04:54:40.221Z,1009.78
2017-11-26T04:55:20.851Z,1009.75
2017-11-26T04:56:01.303Z,1009.77
2017-11-26T04:56:41.461Z,1009.77
2017-11-26T04:57:21.912Z,1009.8
2017-11-26T04:58:02.276Z,1009.77
2017-11-26T04:58:42.689Z,1009.81
2017-11-26T04:59:23.204Z,1009.78
2017-11-26T05:00:03.512Z,1009.78
2017-11-26T05:00:43.862Z,1009.83
2017-11-26T05:01:24.251Z,1009.79
2017-11-26T05:02:04.707Z,1009.76
2017-11-26T05:02:45.053Z,1009.78
2017-11-26T05:03:25.508Z,1009.78
2017-11-26T05:04:05.899Z,1009.81
2017-11-26T05:04:46.313Z,1009.75
2017-11-26T05:05:26.758Z,1009.74
2017-11-26T05:06:07.052Z,1009.75
2017-11-26T05:06:47.505Z,1009.76
2017-11-26T05:07:27.857Z,1009.76
2017-11-26T05:08:08.773Z,1009.72
2017-11-26T05:08:49.192Z,1009.76
2017-11-26T05:09:29.602Z,1009.75
2017-11-26T05:10:10.136Z,1009.78
2017-11-26T05:10:50.432Z,1009.78
2017-11-26T05:11:30.803Z,1009.8
2017-11-26T05:12:11.266Z,1009.82
2017-11-26T05:12:51.615Z,1009.79
2017-11-26T05:13:31.980Z,1009.8
2017-11-26T05:14:12.400Z,1009.8
2017-11-26T05:14:52.820Z,1009.83
2017-11-26T05:15:33.127Z,1009.8
2017-11-26T05:16:13.524Z,1009.82
2017-11-26T05:16:53.917Z,1009.86
2017-11-26T05:17:34.345Z,1009.83
2017-11-26T05:18:14.691Z,1009.87
2017-11-26T05:18:55.159Z,1009.87
2017-11-26T05:19:35.890Z,1009.89
2017-11-26T05:20:16.536Z,1009.89
2017-11-26T05:20:56.931Z,1009.89
2017-11-26T05:21:37.334Z,1009.91
2017-11-26T05:22:17.793Z,1009.92
2017-11-26T05:22:58.221Z,1009.89
2017-11-26T05:23:38.652Z,1009.9
2017-11-26T05:24:19.009Z,1009.87
2017-11-26T05:24:59.481Z,1009.9
2017-11-26T05:25:39.801Z,1009.9
2017-11-26T05:26:20.301Z,1009.88
2017-11-26T05:27:00.656Z,1009.89
2017-11-26T05:27:42.513Z,1009.94
2017-11-26T05:28:22.899Z,1009.83
2017-11-26T05:29:03.505Z,1009.9
2017-11-26T05:29:43.939Z,1009.83
2017-11-26T05:30:24.443Z,1009.88
2017-11-26T05:31:04.776Z,1009.82
2017-11-26T05:31:45.163Z,1009.86
2017-11-26T05:32:25.624Z,1009.84
2017-11-26T05:33:05.965Z,1009.85
2017-11-26T05:33:46.412Z,1009.88
2017-11-26T05:34:27.025Z,1009.77
2017-11-26T05:35:07.343Z,1009.82
2017-11-26T05:35:47.742Z,1009.85
2017-11-26T05:36:28.137Z,1009.83
2017-11-26T05:37:08.551Z,1009.87
2017-11-26T05:37:48.941Z,1009.86
2017-11-26T05:38:29.292Z,1009.89
2017-11-26T05:39:09.724Z,1009.91
2017-11-26T05:39:50.066Z,1009.87
2017-11-26T05:40:30.524Z,1009.87
2017-11-26T05:41:10.908Z,1009.92
2017-11-26T05:41:51.317Z,1009.93
2017-11-26T05:42:31.782Z,1009.94
2017-11-26T05:43:12.014Z,1009.96
2017-11-26T05:43:53.833Z,1009.98
2017-11-26T05:44:34.502Z,1009.99
2017-11-26T05:45:14.846Z,1009.96
2017-11-26T05:45:55.570Z,1010.01
2017-11-26T05:46:35.871Z,1009.94
2017-11-26T05:47:16.238Z,1009.96
2017-11-26T05:48:00.381Z,1009.95
2017-11-26T05:48:40.737Z,1009.97
2017-11-26T05:49:21.157Z,1009.92
2017-11-26T05:50:01.542Z,1009.96
2017-11-26T05:50:41.991Z,1009.91
2017-11-26T05:51:22.494Z,1009.91
2017-11-26T05:52:02.810Z,1009.9
2017-11-26T05:52:43.163Z,1009.92
2017-11-26T05:53:23.579Z,1009.93
2017-11-26T05:54:04.468Z,1009.94
2017-11-26T05:54:44.725Z,1009.92
2017-11-26T05:55:25.198Z,1009.9
2017-11-26T05:56:05.593Z,1009.94
2017-11-26T05:56:46.594Z,1009.92
2017-11-26T05:57:26.732Z,1009.91
2017-11-26T05:58:07.190Z,1009.92
2017-11-26T05:58:48.242Z,1009.96
2017-11-26T05:59:28.622Z,1009.99
2017-11-26T06:00:09.004Z,1009.94
2017-11-26T06:00:49.604Z,1009.98
2017-11-26T06:01:29.956Z,1009.91
2017-11-26T06:02:10.478Z,1010
2017-11-26T06:02:50.862Z,1009.98
2017-11-26T06:03:31.278Z,1009.99
2017-11-26T06:04:11.681Z,1009.99
2017-11-26T06:04:52.181Z,1010
2017-11-26T06:05:32.452Z,1010.01
2017-11-26T06:06:12.857Z,1010.02
2017-11-26T06:06:53.314Z,1010.03
2017-11-26T06:07:33.901Z,1010.05
2017-11-26T06:08:14.373Z,1010.02
2017-11-26T06:08:55.237Z,1010.03
2017-11-26T06:09:35.644Z,1009.98
2017-11-26T06:10:16.093Z,1010
2017-11-26T06:10:57.205Z,1010.03
2017-11-26T06:11:37.178Z,1009.99
2017-11-26T06:12:17.605Z,1010
2017-11-26T06:12:57.970Z,1010.02
2017-11-26T06:13:38.435Z,1010.03
2017-11-26T06:14:18.902Z,1009.99
2017-11-26T06:14:59.253Z,1010.01
2017-11-26T06:15:39.675Z,1010
2017-11-26T06:16:20.051Z,1010.05
2017-11-26T06:17:00.469Z,1009.99
2017-11-26T06:17:40.880Z,1010.01
2017-11-26T06:18:21.480Z,1010.01
2017-11-26T06:19:01.901Z,1010.02
2017-11-26T06:19:42.365Z,1009.97
2017-11-26T06:20:23.045Z,1009.96
2017-11-26T06:21:03.865Z,1010
2017-11-26T06:21:44.505Z,1009.99
2017-11-26T06:22:25.323Z,1010.03
2017-11-26T06:23:05.732Z,1009.98
2017-11-26T06:23:46.116Z,1010
2017-11-26T06:24:26.641Z,1010.03
2017-11-26T06:25:06.940Z,1009.99
2017-11-26T06:25:47.464Z,1010.01
2017-11-26T06:26:27.775Z,1009.94
2017-11-26T06:27:08.152Z,1009.95
2017-11-26T06:27:48.694Z,1010.03
2017-11-26T06:28:29.056Z,1010
2017-11-26T06:29:09.443Z,1009.92
2017-11-26T06:29:49.843Z,1010.06
2017-11-26T06:30:30.307Z,1010.03
2017-11-26T06:31:10.869Z,1010.07
2017-11-26T06:31:51.188Z,1010.05
2017-11-26T06:32:31.590Z,1010.04
2017-11-26T06:33:12.007Z,1009.97
2017-11-26T06:33:52.692Z,1010.08
2017-11-26T06:34:33.480Z,1010.05
2017-11-26T06:35:13.677Z,1010.04
2017-11-26T06:35:56.485Z,1010.06
2017-11-26T06:36:37.131Z,1010.04
2017-11-26T06:37:17.559Z,1010.07
2017-11-26T06:37:57.978Z,1010.09
2017-11-26T06:38:38.364Z,1010.03
2017-11-26T06:39:18.757Z,1010.09
2017-11-26T06:39:59.118Z,1010.07
2017-11-26T06:40:39.499Z,1010.06
2017-11-26T06:41:19.947Z,1010.12
2017-11-26T06:42:00.372Z,1010.12
2017-11-26T06:42:40.929Z,1010.1
2017-11-26T06:43:21.294Z,1010.18
2017-11-26T06:44:01.663Z,1010.11
2017-11-26T06:44:42.088Z,1010.11
2017-11-26T06:45:22.397Z,1010.12
2017-11-26T06:46:02.827Z,1010.1
2017-11-26T06:46:43.229Z,1010.1
2017-11-26T06:47:23.643Z,1010.09
2017-11-26T06:48:04.346Z,1010.12
2017-11-26T06:48:44.665Z,1010.09
2017-11-26T06:49:25.018Z,1010.1
2017-11-26T06:50:05.424Z,1010.1
2017-11-26T06:50:45.931Z,1010.11
2017-11-26T06:51:26.274Z,1010.15
2017-11-26T06:52:06.886Z,1010.07
2017-11-26T06:52:47.348Z,1010.08
2017-11-26T06:53:27.693Z,1010.12
2017-11-26T06:54:08.603Z,1010.12
2017-11-26T06:54:49.393Z,1010.11
2017-11-26T06:55:29.578Z,1010.1
2017-11-26T06:56:09.987Z,1010.16
2017-11-26T06:56:50.391Z,1010.19
2017-11-26T06:57:30.924Z,1010.2
2017-11-26T06:58:12.486Z,1010.14
2017-11-26T06:58:52.881Z,1010.2
2017-11-26T06:59:33.703Z,1010.16
2017-11-26T07:00:13.794Z,1010.18
2017-11-26T07:00:54.347Z,1010.2
2017-11-26T07:01:34.734Z,1010.15
2017-11-26T07:02:15.224Z,1010.13
2017-11-26T07:02:55.622Z,1010.23
2017-11-26T07:03:36.423Z,1010.28
2017-11-26T07:04:17.114Z,1010.2
2017-11-26T07:04:57.370Z,1010.21
2017-11-26T07:05:37.886Z,1010.25
2017-11-26T07:06:18.405Z,1010.27
2017-11-26T07:06:58.965Z,1010.24
2017-11-26T07:07:39.391Z,1010.33
2017-11-26T07:08:19.927Z,1010.28
2017-11-26T07:09:00.440Z,1010.34
2017-11-26T07:09:40.994Z,1010.38
2017-11-26T07:10:21.443Z,1010.34
2017-11-26T07:11:02.022Z,1010.32
2017-11-26T07:11:42.366Z,1010.37
2017-11-26T07:12:22.807Z,1010.35
2017-11-26T07:13:03.154Z,1010.37
2017-11-26T07:13:43.773Z,1010.36
2017-11-26T07:14:24.515Z,1010.37
2017-11-26T07:15:04.995Z,1010.36
2017-11-26T07:15:45.371Z,1010.32
2017-11-26T07:16:25.666Z,1010.33
2017-11-26T07:17:06.195Z,1010.34
2017-11-26T07:17:46.706Z,1010.43
2017-11-26T07:18:27.205Z,1010.4
2017-11-26T07:19:07.606Z,1010.41
2017-11-26T07:19:48.173Z,1010.36
2017-11-26T07:20:28.599Z,1010.4
2017-11-26T07:21:08.962Z,1010.34
2017-11-26T07:21:49.413Z,1010.4
2017-11-26T07:22:29.825Z,1010.41
2017-11-26T07:23:10.187Z,1010.41
2017-11-26T07:23:50.622Z,1010.44
2017-11-26T07:24:31.458Z,1010.42
2017-11-26T07:25:13.010Z,1010.48
2017-11-26T07:25:53.373Z,1010.53
2017-11-26T07:26:35.678Z,1010.53
2017-11-26T07:27:16.144Z,1010.6
2017-11-26T07:27:56.936Z,1010.55
2017-11-26T07:28:37.423Z,1010.53
2017-11-26T07:29:17.791Z,1010.55
2017-11-26T07:29:58.101Z,1010.56
2017-11-26T07:30:38.507Z,1010.55
2017-11-26T07:31:19.253Z,1010.52
2017-11-26T07:31:59.999Z,1010.55
2017-11-26T07:32:40.354Z,1010.57
2017-11-26T07:33:20.756Z,1010.56
2017-11-26T07:34:01.171Z,1010.58
2017-11-26T07:34:41.579Z,1010.54
2017-11-26T07:35:22.088Z,1010.58
2017-11-26T07:36:02.726Z,1010.51
2017-11-26T07:36:43.291Z,1010.59
2017-11-26T07:37:23.521Z,1010.54
2017-11-26T07:38:04.123Z,1010.62
2017-11-26T07:38:44.710Z,1010.57
2017-11-26T07:39:25.250Z,1010.63
2017-11-26T07:40:06.269Z,1010.62
2017-11-26T07:40:46.953Z,1010.6
2017-11-26T07:41:27.313Z,1010.6
2017-11-26T07:42:07.903Z,1010.59
2017-11-26T07:42:48.280Z,1010.57
2017-11-26T07:43:28.736Z,1010.62
2017-11-26T07:44:09.145Z,1010.64
2017-11-26T07:44:49.639Z,1010.56
2017-11-26T07:45:30.120Z,1010.6
2017-11-26T07:46:10.563Z,1010.5
2017-11-26T07:46:50.995Z,1010.58
2017-11-26T07:47:31.658Z,1010.63
2017-11-26T07:48:12.322Z,1010.6
2017-11-26T07:48:53.490Z,1010.6
2017-11-26T07:49:33.992Z,1010.6
2017-11-26T07:50:14.396Z,1010.58
2017-11-26T07:50:54.822Z,1010.67
2017-11-26T07:51:35.233Z,1010.63
2017-11-26T07:52:15.624Z,1010.62
2017-11-26T07:52:56.186Z,1010.55
2017-11-26T07:53:36.610Z,1010.61
2017-11-26T07:54:17.019Z,1010.61
2017-11-26T07:54:57.887Z,1010.6
2017-11-26T07:55:38.937Z,1010.59
2017-11-26T07:56:19.600Z,1010.59
2017-11-26T07:56:59.977Z,1010.7
2017-11-26T07:57:42.309Z,1010.66
2017-11-26T07:58:22.858Z,1010.66
2017-11-26T07:59:03.807Z,1010.62
2017-11-26T07:59:44.125Z,1010.66
2017-11-26T08:00:24.559Z,1010.66
2017-11-26T08:01:04.953Z,1010.67
2017-11-26T08:01:45.394Z,1010.64
2017-11-26T08:02:26.030Z,1010.64
2017-11-26T08:03:06.284Z,1010.61
2017-11-26T08:03:46.677Z,1010.65
2017-11-26T08:04:27.245Z,1010.58
2017-11-26T08:05:08.013Z,1010.63
2017-11-26T08:05:48.677Z,1010.67
2017-11-26T08:06:29.155Z,1010.71
2017-11-26T08:07:09.389Z,1010.72
2017-11-26T08:07:50.093Z,1010.68
2017-11-26T08:08:32.717Z,1010.72
2017-11-26T08:09:13.091Z,1010.72
2017-11-26T08:09:53.529Z,1010.72
2017-11-26T08:10:34.203Z,1010.72
2017-11-26T08:11:14.546Z,1010.7
2017-11-26T08:11:54.963Z,1010.78
2017-11-26T08:12:36.623Z,1010.7
2017-11-26T08:13:17.601Z,1010.77
2017-11-26T08:13:58.003Z,1010.69
2017-11-26T08:14:38.865Z,1010.77
2017-11-26T08:15:19.616Z,1010.78
2017-11-26T08:16:00.641Z,1010.75
2017-11-26T08:16:40.793Z,1010.86
2017-11-26T08:17:21.297Z,1010.86
2017-11-26T08:18:02.081Z,1010.88
2017-11-26T08:18:42.751Z,1010.89
2017-11-26T08:19:23.144Z,1010.86
2017-11-26T08:20:03.738Z,1010.92
2017-11-26T08:20:43.987Z,1011.02
2017-11-26T08:21:24.535Z,1010.92
2017-11-26T08:22:04.924Z,1010.97
2017-11-26T08:22:46.017Z,1010.93
2017-11-26T08:23:26.306Z,1010.98
2017-11-26T08:24:06.770Z,1010.91
2017-11-26T08:24:48.329Z,1010.94
2017-11-26T08:25:29.454Z,1010.98
2017-11-26T08:26:09.917Z,1010.88
2017-11-26T08:26:50.358Z,1010.97
2017-11-26T08:27:32.281Z,1010.93
2017-11-26T08:28:12.749Z,1010.92
2017-11-26T08:28:53.225Z,1010.93
2017-11-26T08:29:33.743Z,1010.95
2017-11-26T08:30:14.479Z,1011
2017-11-26T08:30:55.124Z,1010.94
2017-11-26T08:31:36.769Z,1010.95
2017-11-26T08:32:17.098Z,1011.01
2017-11-26T08:32:57.491Z,1011
2017-11-26T08:33:37.869Z,1010.99
2017-11-26T08:34:18.616Z,1010.98
2017-11-26T08:34:58.901Z,1010.99
2017-11-26T08:35:39.579Z,1010.9
2017-11-26T08:36:20.019Z,1010.98
2017-11-26T08:37:00.472Z,1011.01
2017-11-26T08:37:40.856Z,1010.97
2017-11-26T08:38:21.411Z,1011.02
2017-11-26T08:39:03.319Z,1011.06
2017-11-26T08:39:43.847Z,1011.08
2017-11-26T08:40:24.420Z,1011.08
2017-11-26T08:41:05.399Z,1011.07
2017-11-26T08:41:45.629Z,1011.09
2017-11-26T08:42:26.068Z,1011.01
2017-11-26T08:43:06.735Z,1011
2017-11-26T08:43:47.192Z,1011
2017-11-26T08:44:28.134Z,1011.06
2017-11-26T08:45:08.781Z,1011.03
2017-11-26T08:45:49.062Z,1011.04
2017-11-26T08:46:29.435Z,1011.01
2017-11-26T08:47:09.918Z,1010.88
2017-11-26T08:47:50.348Z,1011.04
2017-11-26T08:48:30.968Z,1011.04
2017-11-26T08:49:11.717Z,1011.02
2017-11-26T08:49:52.107Z,1011.04
2017-11-26T08:50:32.736Z,1011.03
2017-11-26T08:51:13.250Z,1011.06
2017-11-26T08:51:54.011Z,1010.99
2017-11-26T08:52:34.382Z,1011.02
2017-11-26T08:53:14.772Z,1011.06